Time;durP1;ratioP1;P1;durP2;ratioP2;P2;SDS_P1;SDS_P2;PMS_P1;PMS_P2;Temp;Humidity;BMP_temperature;BMP_pressure;BME280_temperature;BME280_humidity;BME280_pressure;Samples;Min_cycle;Max_cycle;Signal;HPM_P1;HPM_P2
2024/04/13 00:01:50;;;;;;;0.40;0.40;;;15.00;99.90;;;;;;4417860;32;20061;-63
2024/04/13 00:04:16;;;;;;;0.73;0.73;;;15.10;99.90;;;;;;4437854;32;20081;-64
2024/04/13 00:06:41;;;;;;;0.40;0.40;;;15.00;99.90;;;;;;4438744;32;20101;-64
2024/04/13 00:09:07;;;;;;;0.50;0.50;;;15.00;99.90;;;;;;4437245;32;20086;-64
2024/04/13 00:11:33;;;;;;;0.30;0.30;;;15.00;99.90;;;;;;4437316;32;20085;-64
2024/04/13 00:13:58;;;;;;;0.40;0.40;;;14.90;99.90;;;;;;4437586;32;20085;-63
2024/04/13 00:16:24;;;;;;;0.93;0.65;;;14.80;99.90;;;;;;4439561;32;20061;-64
2024/04/13 00:18:49;;;;;;;0.30;0.30;;;14.80;99.90;;;;;;4437621;32;20497;-63
2024/04/13 00:21:15;;;;;;;1.27;0.62;;;14.80;99.90;;;;;;4424415;32;20073;-63
2024/04/13 00:23:42;;;;;;;0.57;0.57;;;14.70;99.90;;;;;;4440267;32;20119;-63
2024/04/13 00:26:08;;;;;;;0.30;0.30;;;14.60;99.90;;;;;;4428403;32;20077;-63
2024/04/13 00:28:33;;;;;;;0.30;0.30;;;14.70;99.90;;;;;;4427086;32;20100;-63
2024/04/13 00:30:59;;;;;;;0.30;0.30;;;14.70;99.90;;;;;;4438960;32;20089;-65
2024/04/13 00:33:25;;;;;;;0.40;0.40;;;14.70;99.90;;;;;;4439815;32;20065;-65
2024/04/13 00:35:51;;;;;;;0.28;0.28;;;14.70;99.90;;;;;;4437930;32;20111;-65
2024/04/13 00:38:16;;;;;;;0.40;0.40;;;14.70;99.90;;;;;;4436438;32;20081;-63
2024/04/13 00:40:42;;;;;;;0.30;0.30;;;14.60;99.90;;;;;;4426413;32;20188;-65
2024/04/13 00:43:09;;;;;;;0.50;0.50;;;14.60;99.90;;;;;;4439183;32;20532;-64
2024/04/13 00:45:46;;;;;;;11.07;0.70;;;14.60;99.90;;;;;;4428963;32;20074;-64
2024/04/13 00:48:14;;;;;;;0.35;0.35;;;14.60;99.90;;;;;;4430604;32;20084;-64
2024/04/13 00:50:45;;;;;;;0.40;0.40;;;14.60;99.90;;;;;;4437570;32;20073;-65
2024/04/13 00:53:12;;;;;;;0.40;0.40;;;14.60;99.90;;;;;;4427730;32;20162;-65
2024/04/13 00:55:40;;;;;;;0.52;0.52;;;14.50;99.90;;;;;;4436114;32;20168;-64
2024/04/13 00:58:06;;;;;;;0.45;0.45;;;14.50;99.90;;;;;;4437706;32;20093;-65
2024/04/13 01:00:33;;;;;;;5.07;0.50;;;14.50;99.90;;;;;;4436937;32;20452;-65
2024/04/13 01:03:00;;;;;;;0.50;0.50;;;14.40;99.90;;;;;;4431414;32;20089;-65
2024/04/13 01:05:27;;;;;;;0.40;0.40;;;14.50;99.90;;;;;;4429634;32;20064;-65
2024/04/13 01:07:54;;;;;;;0.45;0.35;;;14.50;99.90;;;;;;4436396;32;20072;-64
2024/04/13 01:10:21;;;;;;;0.40;0.40;;;14.60;99.90;;;;;;4436383;32;20069;-65
2024/04/13 01:12:47;;;;;;;1.65;0.90;;;14.50;99.90;;;;;;4436940;32;20097;-65
2024/04/13 01:15:13;;;;;;;4.90;0.70;;;14.50;99.90;;;;;;4426272;32;20089;-65
2024/04/13 01:17:39;;;;;;;0.75;0.65;;;14.50;99.90;;;;;;4435485;32;20068;-65
2024/04/13 01:20:07;;;;;;;0.98;0.40;;;14.50;99.90;;;;;;4435689;32;20454;-66
2024/04/13 01:22:41;;;;;;;0.62;0.60;;;14.40;99.90;;;;;;4436940;32;20093;-65
2024/04/13 01:25:09;;;;;;;0.40;0.40;;;14.50;99.90;;;;;;4428139;32;20073;-64
2024/04/13 01:27:35;;;;;;;0.35;0.35;;;14.50;99.90;;;;;;4427245;32;20483;-65
2024/04/13 01:30:02;;;;;;;0.40;0.40;;;14.50;99.90;;;;;;4436916;32;20520;-64
2024/04/13 01:32:27;;;;;;;0.50;0.50;;;14.50;99.90;;;;;;4437396;32;20089;-64
2024/04/13 01:34:53;;;;;;;0.40;0.40;;;14.40;99.90;;;;;;4436942;32;20081;-64
2024/04/13 01:37:19;;;;;;;0.30;0.30;;;14.40;99.90;;;;;;4430399;32;20156;-65
2024/04/13 01:39:45;;;;;;;0.50;0.50;;;14.30;99.90;;;;;;4435611;32;20592;-64
2024/04/13 01:42:11;;;;;;;0.30;0.30;;;14.20;99.90;;;;;;4437643;32;20089;-64
2024/04/13 01:44:36;;;;;;;1.45;0.45;;;14.10;99.90;;;;;;4437813;32;20142;-64
2024/04/13 01:47:02;;;;;;;0.50;0.50;;;14.10;99.90;;;;;;4438134;32;20060;-64
2024/04/13 01:49:27;;;;;;;7.75;1.95;;;14.10;99.90;;;;;;4436340;32;20065;-65
2024/04/13 01:51:53;;;;;;;1.02;0.70;;;14.10;99.90;;;;;;4437731;32;20439;-65
2024/04/13 01:54:19;;;;;;;0.40;0.40;;;14.00;99.90;;;;;;4426887;32;20077;-65
2024/04/13 01:56:44;;;;;;;0.50;0.50;;;14.00;99.90;;;;;;4435568;32;20065;-64
2024/04/13 01:59:10;;;;;;;0.30;0.30;;;13.90;99.90;;;;;;4437534;32;20140;-65
2024/04/13 02:01:36;;;;;;;0.95;0.45;;;13.80;99.90;;;;;;4437843;32;20813;-63
2024/04/13 02:04:02;;;;;;;0.95;0.70;;;13.80;99.90;;;;;;4437228;32;20073;-66
2024/04/13 02:06:28;;;;;;;0.40;0.40;;;13.90;99.90;;;;;;4436484;32;20092;-63
2024/04/13 02:08:53;;;;;;;0.40;0.40;;;13.90;99.90;;;;;;4436644;32;20093;-63
2024/04/13 02:11:19;;;;;;;0.45;0.45;;;13.90;99.90;;;;;;4435892;32;20085;-63
2024/04/13 02:13:44;;;;;;;0.62;0.45;;;13.90;99.90;;;;;;4435244;32;20536;-63
2024/04/13 02:16:10;;;;;;;1.25;0.68;;;13.80;99.90;;;;;;4435870;32;20113;-64
2024/04/13 02:18:39;;;;;;;0.30;0.30;;;13.80;99.90;;;;;;4431802;32;20123;-64
2024/04/13 02:21:05;;;;;;;0.45;0.45;;;13.70;99.90;;;;;;4433946;32;20077;-64
2024/04/13 02:23:31;;;;;;;0.37;0.37;;;13.70;99.90;;;;;;4436382;32;20139;-63
2024/04/13 02:25:58;;;;;;;0.40;0.40;;;13.70;99.90;;;;;;4436257;32;20061;-63
2024/04/13 02:28:24;;;;;;;0.40;0.40;;;13.50;99.90;;;;;;4428529;32;20069;-63
2024/04/13 02:30:50;;;;;;;0.62;0.62;;;13.50;99.90;;;;;;4438240;32;20064;-63
2024/04/13 02:33:15;;;;;;;0.55;0.50;;;13.60;99.90;;;;;;4428244;32;20097;-63
2024/04/13 02:35:41;;;;;;;0.40;0.40;;;13.60;99.90;;;;;;4439343;32;20128;-63
2024/04/13 02:38:08;;;;;;;0.43;0.43;;;13.60;99.90;;;;;;4417910;32;20536;-63
2024/04/13 02:40:34;;;;;;;0.70;0.70;;;13.50;99.90;;;;;;4437918;32;20417;-63
2024/04/13 02:43:01;;;;;;;0.40;0.40;;;13.50;99.90;;;;;;4429401;32;20097;-63
2024/04/13 02:45:26;;;;;;;0.50;0.50;;;13.50;99.90;;;;;;4423965;32;21116;-64
2024/04/13 02:47:52;;;;;;;0.57;0.50;;;13.60;99.90;;;;;;4434377;32;20081;-63
2024/04/13 02:50:18;;;;;;;0.30;0.30;;;13.50;99.90;;;;;;4425288;32;20089;-65
2024/04/13 02:52:44;;;;;;;0.40;0.40;;;13.50;99.90;;;;;;4430245;32;20064;-64
2024/04/13 02:55:10;;;;;;;0.35;0.35;;;13.50;99.90;;;;;;4425651;32;20845;-64
2024/04/13 02:57:36;;;;;;;1.05;0.37;;;13.40;99.90;;;;;;4418325;32;20140;-64
2024/04/13 03:00:03;;;;;;;0.50;0.50;;;13.40;99.90;;;;;;4428654;32;20451;-64
2024/04/13 03:02:28;;;;;;;0.52;0.52;;;13.50;99.90;;;;;;4438773;32;20077;-64
2024/04/13 03:04:54;;;;;;;0.93;0.88;;;13.50;99.90;;;;;;4439060;32;20077;-64
2024/04/13 03:07:20;;;;;;;0.30;0.30;;;13.50;99.90;;;;;;4417380;32;20387;-64
2024/04/13 03:09:48;;;;;;;0.68;0.60;;;13.60;99.90;;;;;;4438473;32;20080;-63
2024/04/13 03:12:15;;;;;;;0.60;0.60;;;13.50;99.90;;;;;;4428457;32;20533;-63
2024/04/13 03:14:42;;;;;;;0.43;0.43;;;13.60;99.90;;;;;;4437681;32;20080;-63
2024/04/13 03:17:08;;;;;;;0.60;0.60;;;13.60;99.90;;;;;;4429229;32;20073;-63
2024/04/13 03:19:33;;;;;;;2.05;0.45;;;13.50;99.90;;;;;;4430702;32;20437;-63
2024/04/13 03:21:59;;;;;;;0.60;0.60;;;13.30;99.90;;;;;;4438681;32;20077;-64
2024/04/13 03:24:25;;;;;;;1.30;0.52;;;13.30;99.90;;;;;;4437302;32;20081;-64
2024/04/13 03:26:51;;;;;;;0.60;0.60;;;13.30;99.90;;;;;;4440408;32;20528;-64
2024/04/13 03:29:16;;;;;;;0.60;0.60;;;13.30;99.90;;;;;;4437680;32;20061;-64
2024/04/13 03:31:42;;;;;;;0.35;0.35;;;13.30;99.90;;;;;;4440031;32;20064;-63
2024/04/13 03:34:08;;;;;;;1.08;0.43;;;13.30;99.90;;;;;;4438939;32;20068;-64
2024/04/13 03:36:35;;;;;;;0.52;0.52;;;13.30;99.90;;;;;;4439941;32;20126;-63
2024/04/13 03:39:01;;;;;;;0.50;0.50;;;13.30;99.90;;;;;;4429740;32;20077;-64
2024/04/13 03:41:27;;;;;;;0.50;0.50;;;13.30;99.90;;;;;;4430945;32;20073;-63
2024/04/13 03:43:53;;;;;;;0.40;0.40;;;13.20;99.90;;;;;;4436811;32;20760;-64
2024/04/13 03:46:19;;;;;;;0.50;0.50;;;13.10;99.90;;;;;;4429461;32;20077;-63
2024/04/13 03:48:44;;;;;;;0.80;0.80;;;13.10;99.90;;;;;;4438277;32;20112;-64
2024/04/13 03:51:10;;;;;;;0.82;0.82;;;13.10;99.90;;;;;;4436729;32;20149;-63
2024/04/13 03:53:37;;;;;;;0.35;0.35;;;13.00;99.90;;;;;;4435178;32;20104;-63
2024/04/13 03:56:02;;;;;;;0.30;0.30;;;13.00;99.90;;;;;;4431439;32;20070;-63
2024/04/13 03:58:28;;;;;;;0.30;0.30;;;13.00;99.90;;;;;;4427652;32;20076;-64
2024/04/13 04:00:54;;;;;;;0.45;0.45;;;12.80;99.90;;;;;;4428009;32;20085;-63
2024/04/13 04:03:20;;;;;;;1.30;0.60;;;12.70;99.90;;;;;;4425137;32;20322;-63
2024/04/13 04:05:54;;;;;;;1.45;0.55;;;12.60;99.90;;;;;;4428952;32;20128;-63
2024/04/13 04:08:19;;;;;;;0.57;0.57;;;12.60;99.90;;;;;;4424531;32;20178;-63
2024/04/13 04:10:45;;;;;;;3.33;0.85;;;12.70;99.90;;;;;;4426739;32;20120;-63
2024/04/13 04:13:11;;;;;;;0.52;0.52;;;12.70;99.90;;;;;;4427573;32;20100;-63
2024/04/13 04:15:37;;;;;;;0.85;0.85;;;12.70;99.90;;;;;;4427635;32;20090;-63
2024/04/13 04:18:03;;;;;;;1.40;0.60;;;12.70;99.90;;;;;;4427591;32;20069;-64
2024/04/13 04:20:33;;;;;;;0.40;0.40;;;12.60;99.90;;;;;;4428866;32;20073;-64
2024/04/13 04:22:59;;;;;;;0.65;0.57;;;12.50;99.90;;;;;;4434080;32;20515;-66
2024/04/13 04:25:25;;;;;;;0.40;0.40;;;12.60;99.90;;;;;;4428512;32;20152;-63
2024/04/13 04:27:51;;;;;;;0.50;0.50;;;12.60;99.90;;;;;;4428526;32;20431;-63
2024/04/13 04:30:17;;;;;;;0.47;0.47;;;12.60;99.90;;;;;;4411921;32;20069;-64
2024/04/13 04:32:44;;;;;;;0.60;0.60;;;12.70;99.90;;;;;;4426579;32;20574;-63
2024/04/13 04:35:10;;;;;;;0.85;0.82;;;12.70;99.90;;;;;;4413641;32;20076;-63
2024/04/13 04:37:36;;;;;;;2.87;1.00;;;12.70;99.90;;;;;;4416643;32;20080;-63
2024/04/13 04:40:02;;;;;;;1.90;1.08;;;12.70;99.90;;;;;;4429918;32;20085;-63
2024/04/13 04:42:29;;;;;;;0.40;0.40;;;12.70;99.90;;;;;;4430883;32;20130;-64
2024/04/13 04:44:55;;;;;;;0.30;0.30;;;12.70;99.90;;;;;;4426476;32;20085;-63
2024/04/13 04:47:21;;;;;;;0.43;0.43;;;12.80;99.90;;;;;;4428029;32;20123;-63
2024/04/13 04:49:47;;;;;;;0.47;0.47;;;12.60;99.90;;;;;;4426374;32;20090;-63
2024/04/13 04:52:13;;;;;;;0.60;0.60;;;12.60;99.90;;;;;;4428990;32;20524;-63
2024/04/13 04:54:39;;;;;;;2.35;0.68;;;12.60;99.90;;;;;;4435452;32;20620;-63
2024/04/13 04:57:05;;;;;;;2.60;0.70;;;12.70;99.90;;;;;;4438736;32;20077;-63
2024/04/13 04:59:31;;;;;;;0.37;0.37;;;12.80;99.90;;;;;;4429302;32;21586;-66
2024/04/13 05:01:57;;;;;;;2.10;0.80;;;12.80;99.90;;;;;;4439812;32;20157;-63
2024/04/13 05:04:24;;;;;;;1.02;1.00;;;12.80;99.90;;;;;;4437557;32;20101;-63
2024/04/13 05:06:49;;;;;;;0.50;0.50;;;12.80;99.90;;;;;;4418634;32;20532;-63
2024/04/13 05:09:15;;;;;;;0.70;0.70;;;12.90;99.90;;;;;;4428457;32;20082;-63
2024/04/13 05:11:41;;;;;;;0.50;0.50;;;13.10;99.90;;;;;;4435173;32;20127;-64
2024/04/13 05:14:09;;;;;;;0.30;0.30;;;13.10;99.90;;;;;;4439950;32;20596;-64
2024/04/13 05:16:35;;;;;;;0.70;0.70;;;13.10;99.90;;;;;;4436877;32;20084;-64
2024/04/13 05:19:03;;;;;;;0.47;0.47;;;13.20;99.90;;;;;;4431567;32;20072;-64
2024/04/13 05:21:29;;;;;;;0.55;0.55;;;13.20;99.90;;;;;;4438801;32;20076;-64
2024/04/13 05:23:55;;;;;;;1.30;0.50;;;13.20;99.90;;;;;;4429810;32;20061;-64
2024/04/13 05:26:21;;;;;;;7.05;1.77;;;13.20;99.90;;;;;;4436728;32;20101;-64
2024/04/13 05:28:47;;;;;;;1.00;0.88;;;13.20;99.90;;;;;;4428822;32;20097;-64
2024/04/13 05:31:13;;;;;;;1.58;1.00;;;13.30;99.90;;;;;;4426312;32;20084;-64
2024/04/13 05:33:39;;;;;;;0.90;0.55;;;13.40;99.90;;;;;;4427051;32;20508;-64
2024/04/13 05:36:05;;;;;;;0.80;0.80;;;13.40;99.90;;;;;;4438388;32;20683;-64
2024/04/13 05:38:31;;;;;;;16.33;2.30;;;13.40;99.90;;;;;;4430917;32;20162;-64
2024/04/13 05:40:57;;;;;;;0.43;0.43;;;13.40;99.90;;;;;;4439334;32;20525;-64
2024/04/13 05:43:22;;;;;;;1.65;0.93;;;13.50;99.90;;;;;;4436479;32;20123;-64
2024/04/13 05:45:49;;;;;;;1.48;0.50;;;13.50;99.90;;;;;;4437499;32;20085;-64
2024/04/13 05:48:15;;;;;;;0.30;0.30;;;13.50;99.90;;;;;;4429994;32;20604;-64
2024/04/13 05:50:40;;;;;;;25.85;0.93;;;13.60;99.90;;;;;;4428252;32;20080;-64
2024/04/13 05:53:06;;;;;;;0.52;0.52;;;13.70;99.90;;;;;;4436752;32;20084;-63
2024/04/13 05:55:35;;;;;;;0.57;0.57;;;13.80;99.90;;;;;;4424190;32;20093;-63
2024/04/13 05:58:00;;;;;;;0.55;0.55;;;13.90;99.90;;;;;;4437741;32;20588;-63
2024/04/13 06:02:53;;;;;;;0.45;0.45;;;14.00;99.90;;;;;;4439801;32;20582;-65
2024/04/13 06:05:19;;;;;;;0.50;0.50;;;14.20;99.90;;;;;;4440466;32;20066;-66
2024/04/13 06:07:45;;;;;;;0.55;0.55;;;14.20;99.90;;;;;;4439706;32;20057;-63
2024/04/13 06:10:10;;;;;;;0.65;0.65;;;14.30;99.90;;;;;;4438911;32;20077;-64
2024/04/13 06:12:36;;;;;;;0.52;0.52;;;14.40;99.90;;;;;;4441008;32;20541;-63
2024/04/13 06:15:02;;;;;;;0.45;0.45;;;14.40;99.90;;;;;;4438116;32;20548;-63
2024/04/13 06:17:27;;;;;;;2.95;1.08;;;14.50;99.90;;;;;;4442237;32;20085;-63
2024/04/13 06:19:53;;;;;;;0.80;0.80;;;14.50;99.90;;;;;;4440815;32;20080;-64
2024/04/13 06:22:23;;;;;;;0.90;0.68;;;14.60;99.90;;;;;;4440534;32;20053;-63
2024/04/13 06:24:49;;;;;;;0.40;0.40;;;14.60;99.90;;;;;;4439521;32;20537;-63
2024/04/13 06:27:16;;;;;;;0.45;0.45;;;14.70;99.90;;;;;;4428833;32;20151;-63
2024/04/13 06:29:48;;;;;;;0.82;0.80;;;14.70;99.90;;;;;;4440883;32;20081;-63
2024/04/13 06:32:14;;;;;;;0.80;0.65;;;14.80;99.90;;;;;;4439565;32;20482;-64
2024/04/13 06:34:39;;;;;;;0.60;0.60;;;14.90;99.90;;;;;;4440188;32;20141;-64
2024/04/13 06:37:05;;;;;;;0.52;0.52;;;15.00;99.90;;;;;;4439385;32;20064;-64
2024/04/13 06:39:30;;;;;;;0.80;0.80;;;15.00;99.90;;;;;;4438103;32;20539;-64
2024/04/13 06:41:56;;;;;;;0.50;0.50;;;15.10;99.90;;;;;;4439708;32;20076;-63
2024/04/13 06:44:22;;;;;;;0.37;0.37;;;15.20;99.90;;;;;;4439276;32;20060;-63
2024/04/13 06:46:47;;;;;;;1.42;0.50;;;15.30;99.90;;;;;;4439992;32;20521;-64
2024/04/13 06:49:14;;;;;;;2.53;1.10;;;15.40;99.90;;;;;;4429615;32;20461;-63
2024/04/13 06:51:40;;;;;;;0.98;0.88;;;15.40;99.90;;;;;;4439612;32;20556;-64
2024/04/13 06:54:05;;;;;;;0.50;0.50;;;15.50;99.90;;;;;;4432517;32;20134;-62
2024/04/13 06:56:31;;;;;;;0.60;0.60;;;15.50;99.90;;;;;;4432006;32;20061;-64
2024/04/13 06:58:56;;;;;;;0.80;0.40;;;15.60;99.90;;;;;;4432487;32;20077;-62
2024/04/13 07:01:23;;;;;;;2.42;0.90;;;15.70;99.90;;;;;;4428146;32;20127;-65
2024/04/13 07:03:48;;;;;;;0.62;0.62;;;15.80;99.90;;;;;;4432162;32;20135;-62
2024/04/13 07:06:14;;;;;;;0.47;0.47;;;15.90;99.90;;;;;;4429452;32;20086;-63
2024/04/13 07:08:43;;;;;;;0.40;0.40;;;16.00;99.90;;;;;;4433439;32;20080;-63
2024/04/13 07:11:08;;;;;;;0.50;0.50;;;16.00;99.90;;;;;;4424311;32;20069;-62
2024/04/13 07:13:34;;;;;;;0.75;0.73;;;16.10;99.90;;;;;;4420958;32;20178;-62
2024/04/13 07:16:00;;;;;;;3.03;0.57;;;16.20;99.90;;;;;;4428005;32;20533;-63
2024/04/13 07:18:25;;;;;;;0.40;0.40;;;16.30;99.90;;;;;;4422224;32;20105;-62
2024/04/13 07:20:51;;;;;;;0.47;0.47;;;16.30;99.90;;;;;;4424382;32;20072;-63
2024/04/13 07:23:16;;;;;;;0.88;0.52;;;16.50;99.90;;;;;;4427833;32;20061;-63
2024/04/13 07:25:43;;;;;;;2.55;0.80;;;16.60;99.90;;;;;;4429661;32;20089;-63
2024/04/13 07:28:10;;;;;;;0.43;0.43;;;16.70;99.90;;;;;;4432810;32;20574;-63
2024/04/13 07:30:35;;;;;;;1.00;0.75;;;16.80;99.90;;;;;;4426943;32;20073;-62
2024/04/13 07:33:01;;;;;;;1.62;0.77;;;16.90;99.90;;;;;;4428599;32;20088;-63
2024/04/13 07:35:27;;;;;;;0.77;0.77;;;16.90;99.90;;;;;;4430496;32;20522;-63
2024/04/13 07:37:54;;;;;;;3.37;0.62;;;17.00;99.90;;;;;;4424885;32;20085;-63
2024/04/13 07:40:19;;;;;;;0.60;0.50;;;17.10;99.90;;;;;;4428318;32;20093;-63
2024/04/13 07:42:45;;;;;;;0.40;0.40;;;17.00;99.90;;;;;;4427327;32;20081;-63
2024/04/13 07:45:10;;;;;;;0.85;0.80;;;17.10;99.90;;;;;;4429866;32;20066;-63
2024/04/13 07:47:36;;;;;;;0.70;0.60;;;17.10;99.90;;;;;;4429246;32;20081;-64
2024/04/13 07:50:02;;;;;;;0.70;0.70;;;17.20;99.90;;;;;;4427896;32;20085;-63
2024/04/13 07:52:28;;;;;;;5.43;2.10;;;17.30;99.90;;;;;;4430568;32;20080;-63
2024/04/13 07:54:53;;;;;;;0.50;0.50;;;17.30;99.90;;;;;;4437635;32;20101;-63
2024/04/13 07:57:19;;;;;;;1.17;0.60;;;17.30;99.90;;;;;;4427287;32;20831;-63
2024/04/13 07:59:45;;;;;;;0.77;0.77;;;17.40;99.90;;;;;;4437705;32;20519;-63
2024/04/13 08:02:11;;;;;;;0.70;0.70;;;17.40;99.90;;;;;;4428020;32;20097;-63
2024/04/13 08:04:36;;;;;;;0.68;0.65;;;17.50;99.90;;;;;;4439582;32;20081;-62
2024/04/13 08:07:02;;;;;;;1.23;0.50;;;17.70;99.90;;;;;;4431870;32;20081;-64
2024/04/13 08:09:28;;;;;;;0.65;0.65;;;17.80;99.90;;;;;;4439870;32;20077;-63
2024/04/13 08:11:54;;;;;;;0.60;0.60;;;17.90;99.90;;;;;;4438667;32;20161;-64
2024/04/13 08:14:20;;;;;;;0.50;0.50;;;17.90;99.90;;;;;;4437413;32;20129;-63
2024/04/13 08:16:45;;;;;;;7.72;1.15;;;17.90;99.90;;;;;;4428254;32;20139;-63
2024/04/13 08:19:12;;;;;;;1.87;0.60;;;17.90;99.90;;;;;;4436299;32;20084;-64
2024/04/13 08:21:37;;;;;;;0.88;0.65;;;17.80;99.90;;;;;;4437267;32;20077;-63
2024/04/13 08:24:03;;;;;;;0.50;0.50;;;17.80;99.90;;;;;;4436871;32;20509;-64
2024/04/13 08:26:29;;;;;;;0.50;0.50;;;17.90;99.90;;;;;;4436735;32;20147;-63
2024/04/13 08:28:55;;;;;;;0.55;0.50;;;17.90;99.90;;;;;;4437860;32;20077;-63
2024/04/13 08:31:21;;;;;;;3.55;0.98;;;18.00;99.90;;;;;;4440109;32;20479;-65
2024/04/13 08:33:46;;;;;;;0.47;0.47;;;18.10;99.90;;;;;;4438911;32;20078;-65
2024/04/13 08:36:12;;;;;;;0.85;0.50;;;18.10;99.90;;;;;;4439534;32;20085;-65
2024/04/13 08:38:37;;;;;;;0.37;0.37;;;18.40;99.90;;;;;;4436984;32;20068;-65
2024/04/13 08:41:16;;;;;;;0.45;0.45;;;18.50;99.90;;;;;;4436027;32;20080;-65
2024/04/13 08:43:41;;;;;;;0.50;0.50;;;18.50;99.90;;;;;;4438198;32;20104;-65
2024/04/13 08:46:08;;;;;;;0.40;0.40;;;18.60;99.90;;;;;;4438866;32;20077;-65
2024/04/13 08:48:38;;;;;;;0.35;0.35;;;18.60;99.90;;;;;;4438401;32;20080;-65
2024/04/13 08:51:07;;;;;;;0.40;0.40;;;18.50;99.90;;;;;;4426209;32;20089;-65
2024/04/13 08:53:34;;;;;;;0.40;0.40;;;18.50;99.90;;;;;;4425681;32;20624;-65
2024/04/13 08:56:02;;;;;;;0.40;0.40;;;18.40;99.90;;;;;;4437083;32;20065;-65
2024/04/13 08:58:30;;;;;;;0.40;0.40;;;18.40;99.90;;;;;;4413577;32;20057;-65
2024/04/13 09:00:59;;;;;;;6.28;0.80;;;18.60;99.90;;;;;;4434385;32;20065;-64
2024/04/13 09:03:27;;;;;;;0.40;0.40;;;18.70;99.90;;;;;;4437930;32;20061;-64
2024/04/13 09:05:53;;;;;;;0.30;0.30;;;18.70;99.90;;;;;;4437708;32;20430;-64
2024/04/13 09:08:21;;;;;;;1.85;0.57;;;18.70;99.90;;;;;;4437203;32;20068;-64
2024/04/13 09:10:51;;;;;;;0.60;0.60;;;18.70;99.90;;;;;;4440243;32;20081;-64
2024/04/13 09:13:17;;;;;;;0.47;0.47;;;18.90;99.90;;;;;;4428571;32;20085;-63
2024/04/13 09:15:43;;;;;;;0.40;0.40;;;19.10;99.90;;;;;;4439624;32;20509;-63
2024/04/13 09:18:10;;;;;;;0.40;0.40;;;19.40;99.90;;;;;;4436792;32;20354;-63
2024/04/13 09:20:36;;;;;;;0.70;0.68;;;19.60;99.90;;;;;;4439374;32;20457;-63
2024/04/13 09:23:02;;;;;;;0.40;0.40;;;19.70;99.90;;;;;;4413276;32;20093;-63
2024/04/13 09:25:28;;;;;;;0.30;0.30;;;19.70;99.90;;;;;;4439073;32;20057;-63
2024/04/13 09:28:04;;;;;;;0.40;0.40;;;19.70;99.90;;;;;;4437052;32;20130;-63
2024/04/13 09:30:31;;;;;;;0.35;0.35;;;19.70;99.90;;;;;;4439109;32;20080;-63
2024/04/13 09:33:06;;;;;;;1.95;0.57;;;19.60;99.90;;;;;;4429968;32;20080;-63
2024/04/13 09:35:33;;;;;;;0.32;0.32;;;19.70;99.90;;;;;;4429887;32;20073;-63
2024/04/13 09:37:59;;;;;;;0.68;0.68;;;19.70;99.90;;;;;;4440615;32;20073;-63
2024/04/13 09:40:26;;;;;;;0.30;0.30;;;19.90;99.90;;;;;;4440100;32;20064;-63
2024/04/13 09:42:52;;;;;;;0.52;0.52;;;20.20;99.90;;;;;;4431326;32;20515;-64
2024/04/13 09:45:18;;;;;;;0.40;0.40;;;20.40;99.90;;;;;;4438973;32;20073;-64
2024/04/13 09:47:46;;;;;;;0.30;0.30;;;20.70;99.90;;;;;;4439520;32;20532;-63
2024/04/13 09:50:12;;;;;;;0.80;0.80;;;20.90;99.90;;;;;;4429750;32;20110;-63
2024/04/13 09:52:38;;;;;;;2.83;0.62;;;21.00;99.90;;;;;;4438753;32;20081;-63
2024/04/13 09:55:04;;;;;;;2.42;0.88;;;21.20;99.90;;;;;;4420744;32;20078;-63
2024/04/13 09:57:30;;;;;;;0.30;0.30;;;21.10;99.90;;;;;;4440872;32;20478;-64
2024/04/13 09:59:56;;;;;;;0.40;0.40;;;21.30;99.90;;;;;;4430653;32;20064;-64
2024/04/13 10:02:22;;;;;;;0.45;0.45;;;21.40;99.90;;;;;;4439948;32;20175;-64
2024/04/13 10:04:48;;;;;;;0.62;0.62;;;21.50;99.90;;;;;;4433817;32;20064;-64
2024/04/13 10:07:14;;;;;;;0.32;0.32;;;21.50;99.90;;;;;;4433880;32;20070;-64
2024/04/13 10:09:48;;;;;;;0.32;0.30;;;21.70;99.90;;;;;;4439465;32;20483;-63
2024/04/13 10:12:21;;;;;;;0.40;0.40;;;21.70;99.90;;;;;;4431791;32;20068;-64
2024/04/13 10:14:50;;;;;;;0.37;0.37;;;21.60;99.90;;;;;;4429431;32;20072;-64
2024/04/13 10:17:16;;;;;;;0.20;0.20;;;21.80;99.90;;;;;;4439767;32;20635;-64
2024/04/13 10:19:45;;;;;;;0.35;0.35;;;21.80;99.90;;;;;;4440289;32;20080;-64
2024/04/13 10:22:11;;;;;;;0.40;0.40;;;22.00;99.90;;;;;;4439232;32;20184;-62
2024/04/13 10:24:43;;;;;;;0.20;0.20;;;22.00;99.90;;;;;;4440985;32;20417;-62
2024/04/13 10:27:10;;;;;;;0.30;0.30;;;22.10;99.90;;;;;;4432552;32;20081;-63
2024/04/13 10:29:40;;;;;;;1.73;0.57;;;22.20;99.90;;;;;;4439196;32;20508;-63
2024/04/13 10:32:15;;;;;;;0.30;0.30;;;22.30;99.90;;;;;;4431258;32;20081;-63
2024/04/13 10:34:41;;;;;;;0.25;0.25;;;22.30;99.90;;;;;;4431281;32;20122;-63
2024/04/13 10:37:23;;;;;;;0.40;0.40;;;22.70;99.90;;;;;;4441562;32;20085;-63
2024/04/13 10:39:56;;;;;;;1.05;0.80;;;22.80;99.90;;;;;;4432153;32;20073;-63
2024/04/13 10:42:33;;;;;;;0.32;0.32;;;23.00;99.90;;;;;;4438704;32;20131;-63
2024/04/13 10:44:59;;;;;;;0.20;0.20;;;23.10;99.90;;;;;;4429464;32;20538;-64
2024/04/13 10:47:26;;;;;;;0.57;0.57;;;23.20;99.90;;;;;;4439644;32;20122;-63
2024/04/13 10:49:53;;;;;;;0.80;0.45;;;23.20;99.90;;;;;;4437810;32;20096;-63
2024/04/13 10:52:18;;;;;;;0.20;0.20;;;23.20;99.90;;;;;;4438244;32;20516;-63
2024/04/13 10:54:54;;;;;;;0.37;0.37;;;22.70;99.90;;;;;;4433556;32;20086;-63
2024/04/13 10:57:20;;;;;;;0.30;0.30;;;22.80;99.90;;;;;;4434385;32;20549;-64
2024/04/13 10:59:46;;;;;;;0.25;0.25;;;23.10;99.90;;;;;;4431364;32;20164;-64
2024/04/13 11:02:12;;;;;;;0.10;0.10;;;23.30;99.90;;;;;;4430993;32;20101;-63
2024/04/13 11:04:42;;;;;;;0.10;0.10;;;23.40;99.90;;;;;;4429976;32;20056;-63
2024/04/13 11:07:08;;;;;;;0.17;0.17;;;23.50;99.90;;;;;;4430645;32;20081;-64
2024/04/13 11:09:34;;;;;;;0.20;0.20;;;23.40;99.90;;;;;;4430981;32;20116;-64
2024/04/13 11:11:59;;;;;;;0.30;0.30;;;23.60;99.90;;;;;;4428896;32;20080;-63
2024/04/13 11:14:26;;;;;;;0.28;0.28;;;23.60;99.90;;;;;;4428670;32;20061;-64
2024/04/13 11:16:51;;;;;;;0.30;0.30;;;23.90;99.90;;;;;;4427756;32;21330;-64
2024/04/13 11:19:17;;;;;;;0.13;0.13;;;24.00;99.90;;;;;;4428167;32;20180;-64
2024/04/13 11:21:43;;;;;;;0.10;0.10;;;24.10;99.90;;;;;;4433114;32;20128;-64
2024/04/13 11:24:09;;;;;;;0.30;0.30;;;24.20;99.90;;;;;;4431420;32;20060;-64
2024/04/13 11:26:35;;;;;;;6.20;0.30;;;24.60;99.90;;;;;;4427425;32;20142;-63
2024/04/13 11:29:00;;;;;;;0.20;0.20;;;24.70;99.90;;;;;;4428168;32;20501;-63
2024/04/13 11:31:26;;;;;;;0.20;0.20;;;24.80;99.90;;;;;;4431049;32;21029;-65
2024/04/13 11:33:52;;;;;;;0.20;0.20;;;25.00;99.90;;;;;;4430963;32;20131;-65
2024/04/13 11:36:19;;;;;;;0.95;0.20;;;25.10;99.90;;;;;;4429117;32;20077;-65
2024/04/13 11:38:44;;;;;;;0.10;0.10;;;25.10;99.90;;;;;;4430480;32;20069;-65
2024/04/13 11:41:10;;;;;;;0.10;0.10;;;25.00;99.90;;;;;;4430616;32;20560;-65
2024/04/13 11:43:36;;;;;;;0.55;0.30;;;25.00;99.90;;;;;;4429661;32;20123;-66
2024/04/13 11:46:02;;;;;;;0.60;0.43;;;25.30;99.90;;;;;;4429860;32;20179;-64
2024/04/13 11:48:29;;;;;;;0.20;0.20;;;25.50;97.40;;;;;;4431628;32;20168;-65
2024/04/13 11:50:56;;;;;;;0.40;0.30;;;25.70;96.80;;;;;;4428425;32;20548;-65
2024/04/13 11:53:22;;;;;;;0.00;0.00;;;26.40;96.50;;;;;;4426308;32;111499;-65
2024/04/13 11:55:49;;;;;;;0.20;0.20;;;26.40;95.30;;;;;;4438048;32;20077;-65
2024/04/13 11:58:22;;;;;;;0.10;0.10;;;25.70;96.10;;;;;;4439231;32;20049;-66
2024/04/13 12:00:47;;;;;;;0.00;0.00;;;25.60;96.50;;;;;;4438818;32;20596;-65
2024/04/13 12:03:13;;;;;;;0.10;0.10;;;25.70;95.70;;;;;;4437467;32;20313;-65
2024/04/13 12:05:39;;;;;;;0.10;0.10;;;26.00;95.90;;;;;;4439646;32;20068;-63
2024/04/13 12:08:05;;;;;;;0.20;0.20;;;26.10;95.40;;;;;;4439156;32;20061;-63
2024/04/13 12:10:30;;;;;;;0.10;0.10;;;26.30;95.80;;;;;;4436641;32;20477;-65
2024/04/13 12:12:56;;;;;;;0.17;0.17;;;26.60;94.80;;;;;;4437693;32;20076;-66
2024/04/13 12:15:22;;;;;;;0.17;0.17;;;26.30;93.90;;;;;;4436465;32;20073;-65
2024/04/13 12:17:47;;;;;;;0.17;0.17;;;26.10;94.30;;;;;;4439303;32;20069;-65
2024/04/13 12:20:14;;;;;;;11.43;1.08;;;26.10;94.60;;;;;;4439803;32;20069;-63
2024/04/13 12:22:40;;;;;;;0.10;0.10;;;26.00;94.30;;;;;;4438558;32;20076;-66
2024/04/13 12:25:06;;;;;;;0.13;0.13;;;25.60;94.60;;;;;;4436395;32;20068;-65
2024/04/13 12:27:32;;;;;;;0.13;0.10;;;25.60;94.10;;;;;;4438428;32;20127;-65
2024/04/13 12:29:57;;;;;;;0.10;0.10;;;25.70;94.00;;;;;;4435822;32;20093;-65
2024/04/13 12:32:24;;;;;;;3.65;0.77;;;25.80;94.20;;;;;;4438757;32;20084;-64
2024/04/13 12:34:49;;;;;;;0.43;0.30;;;25.90;94.40;;;;;;4438984;32;20494;-65
2024/04/13 12:37:15;;;;;;;0.00;0.00;;;26.00;94.70;;;;;;4438796;32;20056;-64
2024/04/13 12:39:42;;;;;;;0.37;0.22;;;26.40;94.40;;;;;;4437839;32;20081;-65
2024/04/13 12:42:09;;;;;;;1.12;0.62;;;26.40;94.60;;;;;;4427258;32;20077;-63
2024/04/13 12:44:34;;;;;;;0.28;0.28;;;26.30;93.50;;;;;;4438206;32;20077;-63